Time;durP1;ratioP1;P1;durP2;ratioP2;P2;SDS_P1;SDS_P2;PMS_P1;PMS_P2;Temp;Humidity;BMP_temperature;BMP_pressure;BME280_temperature;BME280_humidity;BME280_pressure;Samples;Min_cycle;Max_cycle;Signal;HPM_P1;HPM_P2
2021/08/07 00:00:54;;;;;;;1.63;1.53;;;15.80;99.90;15.40;96284.00;;;;5069909;28;20230;-68
2021/08/07 00:03:43;;;;;;;2.53;1.20;;;15.80;99.90;15.20;96284.00;;;;5067806;28;20203;-68
2021/08/07 00:06:42;;;;;;;4.40;1.30;;;15.70;99.90;14.80;96285.00;;;;5067520;28;20639;-67
2021/08/07 00:09:33;;;;;;;2.57;1.40;;;15.60;99.90;14.70;96290.00;;;;5068080;28;20219;-68
2021/08/07 00:12:22;;;;;;;1.33;1.23;;;15.40;99.90;14.70;96294.00;;;;5067293;28;20601;-69
2021/08/07 00:15:11;;;;;;;7.17;1.53;;;15.30;99.90;14.60;96293.00;;;;5067805;28;20781;-68
2021/08/07 00:18:00;;;;;;;2.73;1.43;;;15.20;99.90;14.50;96294.00;;;;5067545;28;20226;-65
2021/08/07 00:20:49;;;;;;;1.53;1.40;;;15.10;99.90;14.50;96300.00;;;;5068198;28;20220;-66
2021/08/07 00:23:38;;;;;;;2.83;1.47;;;15.00;99.90;14.60;96304.00;;;;5067082;28;20204;-68
2021/08/07 00:26:28;;;;;;;3.13;1.87;;;15.00;99.90;14.70;96297.00;;;;5066705;28;20224;-65
2021/08/07 00:29:17;;;;;;;2.03;1.37;;;14.90;99.90;14.70;96296.00;;;;5068203;28;20204;-68
2021/08/07 00:32:07;;;;;;;7.40;1.90;;;15.00;99.90;14.70;96293.00;;;;5068197;28;20231;-68
2021/08/07 00:34:56;;;;;;;1.87;1.70;;;15.00;99.90;14.50;96299.00;;;;5065960;28;20227;-65
2021/08/07 00:37:45;;;;;;;4.33;1.60;;;15.00;99.90;14.30;96298.00;;;;5066685;28;20208;-68
2021/08/07 00:40:34;;;;;;;5.10;1.60;;;14.90;99.90;13.90;96288.00;;;;5066988;28;20232;-68
2021/08/07 00:43:24;;;;;;;2.17;1.53;;;14.70;99.90;13.90;96283.00;;;;5066308;28;20207;-68
2021/08/07 00:46:13;;;;;;;2.20;1.87;;;14.60;99.90;13.90;96287.00;;;;5065562;28;20592;-65
2021/08/07 00:49:02;;;;;;;1.53;1.43;;;14.50;99.90;13.90;96288.00;;;;5066365;28;20261;-66
2021/08/07 00:51:51;;;;;;;2.37;1.80;;;14.50;99.90;13.90;96284.00;;;;5067256;28;20232;-66
2021/08/07 00:54:41;;;;;;;2.03;1.50;;;14.40;99.90;13.90;96281.00;;;;5066518;28;20206;-65
2021/08/07 00:57:30;;;;;;;1.50;1.30;;;14.30;99.90;13.90;96291.00;;;;5068022;28;20565;-69
2021/08/07 01:00:20;;;;;;;4.10;1.53;;;14.30;99.90;13.90;96292.00;;;;5066539;28;20210;-65
2021/08/07 01:03:22;;;;;;;3.43;1.47;;;14.30;99.90;14.00;96290.00;;;;5066118;28;20210;-66
2021/08/07 01:06:24;;;;;;;2.40;1.60;;;14.30;99.90;13.90;96291.00;;;;5066766;28;20227;-65
2021/08/07 01:09:23;;;;;;;1.70;1.60;;;14.30;99.90;13.80;96286.00;;;;5067227;28;20740;-68
2021/08/07 01:12:20;;;;;;;4.87;2.03;;;14.30;99.90;13.80;96297.00;;;;5066190;28;20618;-68
2021/08/07 01:15:10;;;;;;;4.57;1.40;;;14.20;99.90;13.70;96298.00;;;;5052464;28;20682;-68
2021/08/07 01:18:03;;;;;;;1.77;1.50;;;14.20;99.90;13.80;96298.00;;;;5066351;28;20702;-68
2021/08/07 01:20:54;;;;;;;2.80;1.53;;;14.20;99.90;13.50;96292.00;;;;5066371;28;20224;-65
2021/08/07 01:23:51;;;;;;;1.63;1.53;;;14.10;99.90;13.60;96299.00;;;;5065885;28;20208;-68
2021/08/07 01:26:50;;;;;;;2.07;1.30;;;14.00;99.90;13.70;96305.00;;;;5067106;28;20224;-65
2021/08/07 01:29:41;;;;;;;4.93;1.57;;;14.10;99.90;13.50;96307.00;;;;5066487;28;20215;-65
2021/08/07 01:32:34;;;;;;;2.57;1.70;;;14.10;99.90;13.40;96306.00;;;;5067069;28;20226;-65
2021/08/07 01:35:23;;;;;;;2.10;1.70;;;14.00;99.90;13.20;96316.00;;;;5065845;28;20204;-68
2021/08/07 01:38:12;;;;;;;1.67;1.30;;;13.90;99.90;13.30;96307.00;;;;5066315;28;20666;-67
2021/08/07 01:41:01;;;;;;;3.63;1.80;;;13.90;99.90;13.30;96296.00;;;;5065790;28;20228;-65
2021/08/07 01:43:51;;;;;;;2.83;2.20;;;13.80;99.90;13.40;96295.00;;;;5064984;28;20200;-68
2021/08/07 01:46:51;;;;;;;5.63;1.47;;;13.80;99.90;13.20;96299.00;;;;5066453;28;20598;-68
2021/08/07 01:49:49;;;;;;;2.77;1.57;;;13.70;99.90;13.30;96293.00;;;;5066042;28;20199;-68
2021/08/07 01:52:44;;;;;;;4.33;1.90;;;13.70;99.90;13.30;96300.00;;;;5055806;28;20223;-68
2021/08/07 01:55:46;;;;;;;2.07;1.70;;;13.70;99.90;13.30;96291.00;;;;5064800;28;20199;-67
2021/08/07 01:58:42;;;;;;;4.90;1.70;;;13.70;99.90;13.30;96299.00;;;;5066516;28;20593;-67
2021/08/07 02:01:33;;;;;;;3.20;1.53;;;13.70;99.90;13.40;96302.00;;;;5065236;28;20216;-67
2021/08/07 02:04:24;;;;;;;4.50;2.30;;;13.70;99.90;13.30;96303.00;;;;5065340;28;20204;-68
2021/08/07 02:07:15;;;;;;;8.33;2.10;;;13.70;99.90;13.20;96303.00;;;;5066248;28;20223;-68
2021/08/07 02:10:06;;;;;;;2.13;1.50;;;13.60;99.90;13.10;96306.00;;;;5063471;28;20203;-64
2021/08/07 02:12:56;;;;;;;2.73;1.43;;;13.60;99.90;13.00;96307.00;;;;5065290;28;20468;-65
2021/08/07 02:15:46;;;;;;;2.30;1.70;;;13.50;99.90;13.10;96317.00;;;;5065807;28;20252;-65
2021/08/07 02:18:40;;;;;;;2.03;1.53;;;13.50;99.90;13.20;96323.00;;;;5066170;28;20207;-65
2021/08/07 02:21:30;;;;;;;3.63;1.57;;;13.50;99.90;13.20;96313.00;;;;5065461;28;20653;-65
2021/08/07 02:24:19;;;;;;;2.73;2.13;;;13.50;99.90;13.00;96320.00;;;;5064898;28;20694;-65
2021/08/07 02:27:08;;;;;;;3.73;1.63;;;13.50;99.90;13.00;96319.00;;;;5064634;28;20215;-65
2021/08/07 02:29:57;;;;;;;1.90;1.67;;;13.50;99.90;13.10;96330.00;;;;5063909;28;20211;-65
2021/08/07 02:32:46;;;;;;;1.70;1.57;;;13.50;99.90;13.10;96325.00;;;;5066478;28;20647;-66
2021/08/07 02:35:37;;;;;;;3.47;1.60;;;13.50;99.90;13.00;96325.00;;;;5065365;28;20717;-65
2021/08/07 02:38:28;;;;;;;2.90;1.30;;;13.50;99.90;12.90;96317.00;;;;5069141;28;20225;-67
2021/08/07 02:41:17;;;;;;;2.57;1.47;;;13.40;99.90;13.00;96319.00;;;;5064870;28;20227;-68
2021/08/07 02:44:07;;;;;;;3.30;2.20;;;13.40;99.90;12.90;96306.00;;;;5065100;28;20215;-65
2021/08/07 02:46:57;;;;;;;3.00;2.30;;;13.40;99.90;12.90;96311.00;;;;5068837;28;20219;-65
2021/08/07 02:49:46;;;;;;;2.57;1.37;;;13.30;99.90;12.70;96306.00;;;;5067668;28;20203;-65
2021/08/07 02:52:36;;;;;;;3.03;1.50;;;13.30;99.90;12.60;96308.00;;;;5054595;28;20223;-68
2021/08/07 02:55:26;;;;;;;2.00;1.80;;;13.20;99.90;12.60;96318.00;;;;5064966;28;20230;-68
2021/08/07 02:58:15;;;;;;;1.60;1.50;;;13.20;99.90;12.40;96320.00;;;;5066191;28;20621;-65
2021/08/07 03:01:04;;;;;;;3.33;1.73;;;13.10;99.90;12.50;96325.00;;;;5064634;28;20699;-67
2021/08/07 03:03:53;;;;;;;6.47;2.13;;;13.00;99.90;12.50;96321.00;;;;5069373;28;20204;-68
2021/08/07 03:06:42;;;;;;;2.07;1.77;;;13.00;99.90;12.20;96321.00;;;;5068541;28;20231;-67
2021/08/07 03:09:31;;;;;;;2.53;1.57;;;12.90;99.90;12.20;96315.00;;;;5071294;28;20210;-67
2021/08/07 03:12:21;;;;;;;3.80;2.13;;;12.80;99.90;12.30;96305.00;;;;5068046;28;20226;-67
2021/08/07 03:15:12;;;;;;;2.13;1.50;;;12.80;99.90;12.30;96316.00;;;;5069843;28;20204;-68
2021/08/07 03:18:01;;;;;;;2.00;1.90;;;12.80;99.90;12.40;96315.00;;;;5069843;28;20629;-68
2021/08/07 03:20:56;;;;;;;1.67;1.43;;;12.80;99.90;12.40;96305.00;;;;5069766;28;20234;-67
2021/08/07 03:23:45;;;;;;;1.53;1.33;;;12.80;99.90;12.30;96314.00;;;;5070246;28;20210;-67
2021/08/07 03:26:34;;;;;;;3.17;1.73;;;12.80;99.90;12.20;96313.00;;;;5069069;28;20226;-67
2021/08/07 03:29:24;;;;;;;3.07;1.63;;;12.70;99.90;12.10;96310.00;;;;5068335;28;20583;-67
2021/08/07 03:32:13;;;;;;;2.83;1.60;;;12.70;99.90;12.20;96301.00;;;;5067922;28;20227;-67
2021/08/07 03:35:02;;;;;;;3.67;1.90;;;12.70;99.90;12.30;96308.00;;;;5068843;28;20200;-66
2021/08/07 03:37:51;;;;;;;3.20;1.87;;;12.70;99.90;12.40;96302.00;;;;5068985;28;20583;-67
2021/08/07 03:40:40;;;;;;;2.50;2.30;;;12.70;99.90;12.40;96306.00;;;;5069167;28;20230;-67
2021/08/07 03:43:29;;;;;;;6.87;1.70;;;12.70;99.90;12.30;96303.00;;;;5069160;28;20709;-67
2021/08/07 03:46:19;;;;;;;2.07;1.93;;;12.70;99.90;12.20;96299.00;;;;5070188;28;20208;-67
2021/08/07 03:49:08;;;;;;;1.53;1.43;;;12.70;99.90;12.10;96294.00;;;;5069588;28;20212;-67
2021/08/07 03:51:57;;;;;;;2.20;1.50;;;12.70;99.90;12.10;96296.00;;;;5068861;28;20223;-67
2021/08/07 03:54:46;;;;;;;4.50;2.07;;;12.60;99.90;12.00;96294.00;;;;5068334;28;20204;-67
2021/08/07 03:57:51;;;;;;;3.63;1.43;;;12.50;99.90;12.00;96297.00;;;;5056747;28;20214;-66
2021/08/07 04:00:40;;;;;;;6.93;2.10;;;12.60;99.90;12.00;96300.00;;;;5068073;28;20222;-67
2021/08/07 04:03:31;;;;;;;1.70;1.60;;;12.50;99.90;12.10;96303.00;;;;5069558;28;20219;-67
2021/08/07 04:06:20;;;;;;;1.97;1.47;;;12.50;99.90;12.20;96300.00;;;;5067900;28;20212;-67
2021/08/07 04:09:08;;;;;;;1.63;1.53;;;12.50;99.90;12.20;96290.00;;;;5063229;28;20200;-67
2021/08/07 04:11:57;;;;;;;2.27;1.83;;;12.50;99.90;12.20;96286.00;;;;5069681;28;20608;-66
2021/08/07 04:14:46;;;;;;;1.80;1.13;;;12.60;99.90;12.00;96281.00;;;;5068987;28;20235;-67
2021/08/07 04:17:37;;;;;;;5.07;1.93;;;12.60;99.90;11.80;96283.00;;;;5068941;28;20196;-67
2021/08/07 04:20:27;;;;;;;2.97;1.67;;;12.50;99.90;11.70;96289.00;;;;5057711;28;20203;-67
2021/08/07 04:23:16;;;;;;;2.10;1.50;;;12.40;99.90;11.70;96294.00;;;;5068486;28;20210;-68
2021/08/07 04:26:05;;;;;;;2.77;1.60;;;12.30;99.90;11.80;96277.00;;;;5068646;28;20211;-68
2021/08/07 04:28:54;;;;;;;7.03;2.30;;;12.30;99.90;11.90;96272.00;;;;5068747;28;20238;-67
2021/08/07 04:31:43;;;;;;;3.30;1.40;;;12.30;99.90;12.00;96280.00;;;;5068293;28;20779;-68
2021/08/07 04:34:32;;;;;;;4.67;1.80;;;12.40;99.90;12.00;96287.00;;;;5069071;28;20702;-67
2021/08/07 04:37:22;;;;;;;2.23;1.60;;;12.40;99.90;12.00;96286.00;;;;5068727;28;20204;-67
2021/08/07 04:40:12;;;;;;;8.90;1.77;;;12.40;99.90;12.10;96293.00;;;;5067727;28;20587;-67
2021/08/07 04:43:01;;;;;;;3.10;1.80;;;12.50;99.90;12.10;96288.00;;;;5066483;28;20199;-67
2021/08/07 04:45:50;;;;;;;4.20;1.63;;;12.50;99.90;12.10;96302.00;;;;5067446;28;20440;-67
2021/08/07 04:48:39;;;;;;;5.97;1.87;;;12.50;99.90;12.20;96301.00;;;;5067875;28;20702;-67
2021/08/07 04:51:28;;;;;;;9.13;5.10;;;12.60;99.90;12.50;96298.00;;;;5067700;28;20227;-67
2021/08/07 04:54:18;;;;;;;7.63;3.50;;;12.70;99.90;12.70;96298.00;;;;5056480;28;20212;-67
2021/08/07 04:57:07;;;;;;;2.13;1.90;;;12.80;99.90;12.70;96299.00;;;;5066477;28;20226;-67
2021/08/07 04:59:56;;;;;;;2.13;1.60;;;12.90;99.90;12.60;96310.00;;;;5067945;28;20501;-67
2021/08/07 05:02:46;;;;;;;2.53;1.50;;;13.00;99.90;12.60;96318.00;;;;5064689;28;20208;-65
2021/08/07 05:05:35;;;;;;;2.37;1.57;;;13.00;99.90;12.70;96306.00;;;;5055104;28;20211;-67
2021/08/07 05:08:24;;;;;;;2.80;1.33;;;13.00;99.90;12.80;96301.00;;;;5067600;28;20690;-67
2021/08/07 05:11:14;;;;;;;2.40;1.90;;;13.10;99.90;12.90;96309.00;;;;5072709;28;20229;-67
2021/08/07 05:14:03;;;;;;;3.57;1.60;;;13.20;99.90;13.10;96307.00;;;;5070906;28;20204;-66
2021/08/07 05:16:52;;;;;;;2.17;1.97;;;13.20;99.90;13.30;96307.00;;;;5052964;28;20663;-66
2021/08/07 05:19:41;;;;;;;2.47;1.67;;;13.40;99.90;13.40;96302.00;;;;5066065;28;20204;-66
2021/08/07 05:22:30;;;;;;;3.30;2.07;;;13.50;99.90;13.60;96300.00;;;;5066299;28;20231;-65
2021/08/07 05:25:18;;;;;;;1.87;1.77;;;13.60;99.90;13.70;96306.00;;;;5065807;28;20212;-67
2021/08/07 05:28:09;;;;;;;1.83;1.63;;;13.80;99.90;13.90;96308.00;;;;5066247;28;20216;-66
2021/08/07 05:30:58;;;;;;;2.20;2.00;;;13.90;99.90;14.00;96310.00;;;;5065017;28;20235;-66
2021/08/07 05:33:47;;;;;;;3.30;2.17;;;14.00;99.90;14.20;96311.00;;;;5065764;28;20207;-65
2021/08/07 05:36:35;;;;;;;2.40;2.20;;;14.20;99.90;14.40;96311.00;;;;5065823;28;20609;-66
2021/08/07 05:39:24;;;;;;;3.40;2.20;;;14.30;99.90;14.50;96301.00;;;;5066667;28;20256;-67
2021/08/07 05:42:13;;;;;;;3.50;2.57;;;14.50;99.90;14.60;96299.00;;;;5066007;28;20997;-66
2021/08/07 05:45:06;;;;;;;5.60;2.07;;;14.60;99.90;14.60;96291.00;;;;5066603;28;20204;-66
2021/08/07 05:47:55;;;;;;;3.70;1.87;;;14.70;99.90;14.70;96291.00;;;;5056507;28;20223;-66
2021/08/07 05:50:44;;;;;;;2.47;2.27;;;14.80;99.90;14.90;96294.00;;;;5066157;28;20285;-66
2021/08/07 05:53:33;;;;;;;6.73;2.73;;;14.90;99.90;15.00;96300.00;;;;5067306;28;20200;-65
2021/08/07 05:56:22;;;;;;;2.63;2.23;;;15.00;99.90;14.90;96302.00;;;;5065957;28;20204;-66
2021/08/07 05:59:10;;;;;;;2.00;1.60;;;15.10;99.90;14.90;96302.00;;;;5066483;28;20196;-67
2021/08/07 06:02:02;;;;;;;4.27;2.30;;;15.20;99.90;15.20;96305.00;;;;5059044;28;20227;-66
2021/08/07 06:04:51;;;;;;;3.13;2.03;;;15.30;99.90;15.30;96305.00;;;;5061119;28;20273;-66
2021/08/07 06:07:40;;;;;;;2.67;2.33;;;15.40;99.90;15.30;96296.00;;;;5065906;28;20580;-66
2021/08/07 06:10:29;;;;;;;3.53;2.70;;;15.40;99.90;15.60;96296.00;;;;5054587;28;20212;-67
2021/08/07 06:13:18;;;;;;;4.60;2.27;;;15.60;99.90;15.90;96290.00;;;;5066006;28;20214;-67
2021/08/07 06:16:07;;;;;;;10.57;2.50;;;15.80;99.90;16.20;96290.00;;;;5066474;28;20203;-66
2021/08/07 06:18:57;;;;;;;5.73;2.57;;;15.90;99.90;16.50;96293.00;;;;5066629;28;20208;-65
2021/08/07 06:21:47;;;;;;;4.37;2.43;;;16.20;99.90;16.80;96290.00;;;;5062726;28;20224;-66
2021/08/07 06:24:36;;;;;;;4.40;2.17;;;16.40;99.90;17.00;96291.00;;;;5064835;28;20204;-66
2021/08/07 06:27:25;;;;;;;3.93;2.67;;;16.70;99.90;17.00;96297.00;;;;5076160;28;20211;-66
2021/08/07 06:30:14;;;;;;;6.37;2.40;;;16.80;99.90;17.20;96303.00;;;;5066149;28;20208;-67
2021/08/07 06:33:03;;;;;;;6.10;2.33;;;17.00;99.90;17.50;96298.00;;;;5053027;28;20204;-67
2021/08/07 06:35:53;;;;;;;5.10;2.10;;;17.20;99.90;17.80;96298.00;;;;5065467;28;20705;-67
2021/08/07 06:38:44;;;;;;;3.90;3.10;;;17.50;99.90;18.10;96301.00;;;;5068622;28;20219;-68
2021/08/07 06:41:33;;;;;;;3.60;2.87;;;17.70;99.90;18.40;96290.00;;;;5061722;28;20227;-68
2021/08/07 06:44:22;;;;;;;3.10;2.40;;;17.90;99.90;18.80;96287.00;;;;5069860;28;20255;-67
2021/08/07 06:47:11;;;;;;;7.97;2.40;;;18.20;99.90;19.10;96284.00;;;;5056765;28;20199;-67
2021/08/07 06:50:01;;;;;;;3.13;2.17;;;18.50;99.90;19.10;96297.00;;;;5065792;28;20280;-68
2021/08/07 06:52:51;;;;;;;6.57;2.27;;;18.70;99.90;19.10;96303.00;;;;5070199;28;20216;-68
2021/08/07 06:55:40;;;;;;;2.57;2.10;;;18.90;99.90;19.10;96286.00;;;;5068214;28;20200;-66
2021/08/07 06:58:29;;;;;;;3.40;2.53;;;19.00;99.90;19.40;96294.00;;;;5069552;28;20214;-67
2021/08/07 07:01:18;;;;;;;2.87;2.10;;;19.10;99.90;19.50;96286.00;;;;5070012;28;20285;-67
2021/08/07 07:04:07;;;;;;;2.83;1.97;;;19.30;99.90;19.60;96278.00;;;;5059605;28;20203;-67
2021/08/07 07:06:57;;;;;;;6.33;2.00;;;19.40;99.90;19.70;96282.00;;;;5068725;28;20199;-67
2021/08/07 07:09:47;;;;;;;4.97;1.80;;;19.50;99.90;19.80;96289.00;;;;5071479;28;20263;-68
2021/08/07 07:12:36;;;;;;;6.23;2.30;;;19.60;99.90;20.00;96283.00;;;;5065445;28;20261;-69
2021/08/07 07:15:25;;;;;;;5.00;2.10;;;19.80;99.90;19.90;96290.00;;;;5058197;28;20203;-67
2021/08/07 07:18:14;;;;;;;5.77;2.20;;;19.90;99.90;20.20;96292.00;;;;5074834;28;20212;-67
2021/08/07 07:21:03;;;;;;;2.40;1.80;;;20.00;99.90;20.30;96283.00;;;;5074808;28;20220;-70
2021/08/07 07:23:52;;;;;;;2.17;1.93;;;20.10;99.90;20.50;96293.00;;;;5068382;28;20327;-66
2021/08/07 07:26:42;;;;;;;3.40;1.90;;;20.20;99.90;20.70;96283.00;;;;5068376;28;20205;-70
2021/08/07 07:29:31;;;;;;;3.70;1.97;;;20.40;99.90;20.80;96283.00;;;;5067071;28;20215;-68
2021/08/07 07:32:20;;;;;;;3.13;2.07;;;20.50;99.90;21.00;96279.00;;;;5082057;28;20220;-67
2021/08/07 07:35:11;;;;;;;3.40;1.80;;;20.70;99.90;21.20;96287.00;;;;5068042;28;20214;-68
2021/08/07 07:37:59;;;;;;;2.30;2.10;;;20.80;99.90;21.30;96289.00;;;;5069150;28;20694;-67
2021/08/07 07:40:48;;;;;;;2.13;1.20;;;21.00;99.90;21.50;96288.00;;;;5063159;28;20227;-67
2021/08/07 07:43:39;;;;;;;3.00;1.33;;;21.10;99.90;21.60;96275.00;;;;5059097;28;20215;-67
2021/08/07 07:46:28;;;;;;;2.63;1.83;;;21.30;99.90;21.80;96289.00;;;;5071623;28;20199;-67
2021/08/07 07:49:17;;;;;;;1.87;1.70;;;21.50;99.90;21.70;96281.00;;;;5065989;28;20269;-66
2021/08/07 07:52:07;;;;;;;1.77;1.47;;;21.60;99.90;21.90;96274.00;;;;5068734;28;20226;-67
2021/08/07 07:54:56;;;;;;;2.43;1.83;;;21.70;99.90;22.10;96269.00;;;;5069177;28;20376;-67
2021/08/07 07:57:45;;;;;;;4.67;2.17;;;21.80;99.90;21.80;96271.00;;;;5055835;28;20251;-66
2021/08/07 08:00:36;;;;;;;1.40;1.23;;;21.90;99.90;21.90;96276.00;;;;5071246;28;20219;-69
2021/08/07 08:03:25;;;;;;;2.53;1.40;;;21.90;99.90;22.20;96279.00;;;;5079153;28;20288;-68
2021/08/07 08:06:14;;;;;;;2.07;1.40;;;22.00;99.90;22.30;96272.00;;;;5067842;28;20577;-69
2021/08/07 08:09:03;;;;;;;2.77;1.87;;;22.10;99.90;22.40;96262.00;;;;5063832;28;20231;-70
2021/08/07 08:11:52;;;;;;;2.10;1.90;;;22.20;99.90;22.70;96265.00;;;;5057035;28;20220;-68
2021/08/07 08:14:41;;;;;;;1.23;1.13;;;22.30;99.90;22.90;96265.00;;;;5062039;28;20203;-68
2021/08/07 08:17:31;;;;;;;3.03;1.60;;;22.50;99.90;22.90;96258.00;;;;5059729;28;20886;-68
2021/08/07 08:20:21;;;;;;;1.53;1.13;;;22.60;99.90;23.10;96256.00;;;;5063900;28;20204;-68
2021/08/07 08:23:10;;;;;;;2.40;1.50;;;22.80;99.90;23.10;96251.00;;;;5064433;28;20207;-68
2021/08/07 08:25:59;;;;;;;3.77;1.60;;;22.80;99.90;23.20;96249.00;;;;5058051;28;20253;-68
2021/08/07 08:28:48;;;;;;;2.73;1.50;;;23.00;99.90;23.30;96247.00;;;;5052912;28;20222;-68
2021/08/07 08:31:37;;;;;;;1.60;1.50;;;23.10;99.90;23.00;96244.00;;;;5046369;28;20920;-68
2021/08/07 08:34:27;;;;;;;1.93;1.33;;;23.20;99.90;23.10;96243.00;;;;5052762;28;20214;-67
2021/08/07 08:37:16;;;;;;;1.40;1.30;;;23.20;99.90;23.40;96231.00;;;;5054479;28;20226;-68
2021/08/07 08:40:08;;;;;;;1.20;1.10;;;23.30;99.90;23.80;96232.00;;;;5060032;28;20222;-67
2021/08/07 08:42:57;;;;;;;1.40;1.30;;;23.40;99.90;23.90;96232.00;;;;5048204;28;21384;-68
2021/08/07 08:45:46;;;;;;;1.70;1.50;;;23.50;99.90;24.20;96240.00;;;;5051494;28;20567;-68
2021/08/07 08:48:37;;;;;;;2.30;1.50;;;23.70;99.90;24.10;96238.00;;;;5054925;28;20682;-68
2021/08/07 08:51:31;;;;;;;1.60;1.33;;;23.80;99.90;24.50;96230.00;;;;5051891;28;20231;-68
2021/08/07 08:54:20;;;;;;;3.97;2.13;;;24.00;99.90;24.60;96231.00;;;;5050875;28;20202;-68
2021/08/07 08:57:10;;;;;;;2.90;1.10;;;24.10;99.90;24.00;96228.00;;;;5056328;28;20197;-69
2021/08/07 09:00:00;;;;;;;1.50;1.40;;;24.10;99.90;24.40;96216.00;;;;5059173;28;20204;-68
2021/08/07 09:02:49;;;;;;;2.47;1.53;;;24.20;99.90;24.60;96218.00;;;;5054416;28;20598;-71
2021/08/07 09:05:38;;;;;;;3.80;1.47;;;24.30;99.90;24.60;96212.00;;;;5057398;28;20609;-70
2021/08/07 09:08:28;;;;;;;1.43;1.13;;;24.40;99.90;24.90;96212.00;;;;5059955;28;20232;-71
2021/08/07 09:11:22;;;;;;;2.57;2.07;;;24.70;99.90;25.00;96213.00;;;;5055291;28;20270;-71
2021/08/07 09:14:21;;;;;;;1.63;1.50;;;24.60;99.90;25.20;96204.00;;;;5049747;28;20201;-71
2021/08/07 09:17:17;;;;;;;2.33;1.60;;;24.80;99.90;25.20;96205.00;;;;5063286;28;20221;-71
2021/08/07 09:20:08;;;;;;;1.63;1.40;;;24.90;99.90;25.30;96207.00;;;;5049993;28;20586;-71
2021/08/07 09:22:58;;;;;;;1.93;1.50;;;25.00;99.90;25.40;96191.00;;;;5064637;28;20589;-72
2021/08/07 09:25:48;;;;;;;2.30;1.63;;;25.10;99.90;25.30;96187.00;;;;5053024;28;20206;-71
2021/08/07 09:28:52;;;;;;;2.63;1.53;;;25.10;99.90;25.30;96193.00;;;;5064199;28;20676;-72
2021/08/07 09:31:59;;;;;;;1.83;1.63;;;25.20;99.90;25.40;96191.00;;;;5064493;28;20271;-72
2021/08/07 09:35:05;;;;;;;1.13;1.10;;;25.20;99.90;25.80;96189.00;;;;5051952;28;20254;-71
2021/08/07 09:38:06;;;;;;;1.73;1.37;;;25.40;99.90;26.00;96195.00;;;;5061944;28;20701;-72
2021/08/07 09:40:59;;;;;;;1.70;1.37;;;25.50;99.90;26.00;96188.00;;;;5061706;28;20237;-72
2021/08/07 09:43:52;;;;;;;1.40;1.30;;;25.60;98.30;25.90;96188.00;;;;5065599;28;20218;-72
2021/08/07 09:46:41;;;;;;;1.63;1.20;;;25.70;97.90;26.50;96187.00;;;;5063118;28;20226;-72
2021/08/07 09:49:35;;;;;;;1.93;1.73;;;25.90;99.80;26.60;96189.00;;;;5065846;28;20204;-72
2021/08/07 09:52:24;;;;;;;2.37;1.70;;;26.00;98.70;26.80;96188.00;;;;5063477;28;20233;-72
2021/08/07 09:55:13;;;;;;;1.60;1.40;;;26.30;98.60;26.50;96183.00;;;;5065612;28;20203;-72
2021/08/07 09:58:10;;;;;;;4.50;1.47;;;26.30;96.70;26.50;96191.00;;;;5064528;28;20209;-72
2021/08/07 10:00:59;;;;;;;1.63;1.53;;;26.40;96.70;25.70;96175.00;;;;5066590;28;20228;-72
2021/08/07 10:03:48;;;;;;;3.33;2.23;;;26.30;96.50;25.50;96183.00;;;;5065616;28;20223;-71
2021/08/07 10:06:37;;;;;;;1.90;1.47;;;26.20;95.90;25.40;96186.00;;;;5064399;28;20233;-72
2021/08/07 10:09:34;;;;;;;3.47;1.63;;;25.90;96.30;26.10;96192.00;;;;5064438;28;20196;-74
2021/08/07 10:12:23;;;;;;;2.23;2.03;;;25.80;96.00;26.20;96178.00;;;;5061922;28;20227;-76
2021/08/07 10:15:14;;;;;;;1.77;1.50;;;26.00;95.80;25.50;96175.00;;;;5061965;28;20207;-72
2021/08/07 10:18:03;;;;;;;3.13;1.77;;;25.70;96.20;26.80;96172.00;;;;5066184;28;20631;-73
2021/08/07 10:20:52;;;;;;;2.03;1.67;;;25.90;98.00;27.00;96167.00;;;;5062397;28;20713;-74
2021/08/07 10:23:42;;;;;;;1.80;1.50;;;26.20;95.90;27.10;96157.00;;;;5063421;28;20245;-74
2021/08/07 10:26:34;;;;;;;3.73;1.63;;;26.40;95.40;27.80;96160.00;;;;5049712;28;20218;-74
2021/08/07 10:29:30;;;;;;;2.80;2.17;;;26.80;97.80;27.00;96153.00;;;;5062414;28;20246;-74
2021/08/07 10:32:23;;;;;;;2.77;1.67;;;26.90;93.90;27.70;96154.00;;;;5062019;28;20241;-74
2021/08/07 10:35:13;;;;;;;1.60;1.50;;;27.00;95.10;27.70;96156.00;;;;5062343;28;20224;-73
2021/08/07 10:38:02;;;;;;;2.23;2.03;;;27.20;95.40;28.10;96152.00;;;;5053904;28;20201;-73
2021/08/07 10:40:51;;;;;;;2.50;2.07;;;27.40;96.00;27.90;96158.00;;;;5063142;28;20225;-72
2021/08/07 10:43:41;;;;;;;1.73;1.50;;;27.50;94.20;27.70;96148.00;;;;5063182;28;20208;-72
2021/08/07 10:46:31;;;;;;;2.33;1.77;;;27.50;94.00;28.10;96138.00;;;;5062294;28;20271;-73
2021/08/07 10:49:35;;;;;;;3.63;2.20;;;27.60;94.70;28.40;96139.00;;;;5051716;28;20310;-73
2021/08/07 10:52:36;;;;;;;3.50;2.00;;;27.80;93.60;27.90;96135.00;;;;5062695;28;20226;-69
2021/08/07 10:55:48;;;;;;;5.60;2.07;;;27.90;91.70;28.80;96124.00;;;;5061287;28;21186;-72
2021/08/07 10:58:44;;;;;;;2.07;1.87;;;28.00;93.00;29.50;96124.00;;;;5064520;28;20607;-73
2021/08/07 11:01:34;;;;;;;6.83;2.87;;;28.30;94.10;29.50;96130.00;;;;5065268;28;20220;-72
2021/08/07 11:04:28;;;;;;;3.00;1.90;;;28.60;92.80;29.70;96121.00;;;;5064498;28;20699;-73
2021/08/07 11:07:21;;;;;;;1.67;1.57;;;28.80;92.30;30.00;96122.00;;;;5064028;28;20198;-73
2021/08/07 11:10:13;;;;;;;2.33;2.10;;;29.10;92.00;29.90;96125.00;;;;5064241;28;20363;-73
2021/08/07 11:13:24;;;;;;;2.43;1.93;;;29.30;90.70;29.80;96118.00;;;;5063874;28;20209;-73
2021/08/07 11:16:22;;;;;;;3.15;2.17;;;29.30;88.20;29.70;96112.00;;;;5064129;28;20212;-73
2021/08/07 11:19:54;;;;;;;2.20;2.00;;;29.30;87.30;29.10;96094.00;;;;5065159;28;20202;-73
2021/08/07 11:23:18;;;;;;;2.13;1.85;;;29.30;87.20;29.70;96102.00;;;;5058980;28;20271;-73
2021/08/07 11:26:08;;;;;;;2.38;2.08;;;29.30;89.40;29.80;96088.00;;;;5060892;28;20220;-73
2021/08/07 11:29:09;;;;;;;5.32;2.00;;;29.40;87.10;30.30;96090.00;;;;5067833;28;20648;-73
2021/08/07 11:32:17;;;;;;;2.22;2.00;;;29.60;87.80;30.80;96096.00;;;;5066218;28;20928;-73
2021/08/07 11:35:08;;;;;;;2.75;2.13;;;29.80;88.50;30.40;96084.00;;;;5058733;28;20571;-77
2021/08/07 11:38:13;;;;;;;2.58;2.15;;;30.00;88.30;30.60;96086.00;;;;5067587;28;20212;-70
2021/08/07 11:41:04;;;;;;;2.33;2.10;;;30.10;90.00;30.30;96087.00;;;;5066955;28;20222;-72
2021/08/07 11:43:57;;;;;;;2.05;1.85;;;30.30;87.00;30.60;96081.00;;;;5067238;28;20203;-71
2021/08/07 11:46:46;;;;;;;2.47;2.25;;;30.30;83.50;30.70;96084.00;;;;5064355;28;20302;-73
2021/08/07 11:49:35;;;;;;;2.58;2.20;;;30.40;83.80;31.20;96076.00;;;;5067344;28;20206;-72
2021/08/07 11:52:30;;;;;;;1.90;1.75;;;30.50;84.20;29.70;96070.00;;;;5058530;28;20224;-72
2021/08/07 11:55:19;;;;;;;2.90;2.60;;;30.50;81.60;28.10;96058.00;;;;5070616;28;20655;-72
2021/08/07 11:58:11;;;;;;;2.05;1.85;;;30.00;80.70;28.60;96064.00;;;;5065520;28;20665;-72
2021/08/07 12:01:03;;;;;;;2.45;1.85;;;29.10;82.80;29.70;96073.00;;;;5065537;28;20244;-72
2021/08/07 12:03:54;;;;;;;2.58;1.92;;;29.30;86.60;28.80;96053.00;;;;5067404;28;20300;-71
2021/08/07 12:06:43;;;;;;;3.00;2.33;;;29.30;83.00;29.80;96064.00;;;;5066338;28;20238;-70
2021/08/07 12:09:33;;;;;;;2.63;2.42;;;29.50;82.00;29.90;96051.00;;;;5067367;28;20656;-71
2021/08/07 12:12:22;;;;;;;3.55;2.67;;;29.40;82.10;29.40;96049.00;;;;5059942;28;20310;-75
2021/08/07 12:15:13;;;;;;;2.80;2.47;;;29.50;82.70;29.40;96045.00;;;;5066288;28;20205;-71
2021/08/07 12:18:02;;;;;;;2.78;2.00;;;29.50;83.00;29.70;96082.00;;;;5056921;28;20203;-72
2021/08/07 12:20:53;;;;;;;2.45;2.20;;;29.60;82.80;29.30;96086.00;;;;5052676;28;20233;-71
2021/08/07 12:23:45;;;;;;;4.72;2.30;;;29.50;86.50;29.90;96063.00;;;;5061480;28;20742;-72
2021/08/07 12:26:45;;;;;;;1.95;1.77;;;29.60;83.30;30.30;96044.00;;;;5067869;28;20217;-71
2021/08/07 12:29:34;;;;;;;3.40;2.25;;;29.70;82.90;31.30;96033.00;;;;5064925;28;20207;-71
2021/08/07 12:32:23;;;;;;;2.95;2.63;;;30.10;81.80;29.70;96014.00;;;;5058350;28;20825;-71
2021/08/07 12:35:31;;;;;;;2.55;2.35;;;30.10;82.70;31.80;96024.00;;;;5062863;28;20210;-70
2021/08/07 12:38:23;;;;;;;2.90;2.70;;;30.40;84.20;31.30;96075.00;;;;5052736;28;20202;-70
2021/08/07 12:41:14;;;;;;;4.57;2.40;;;30.60;81.30;31.60;96081.00;;;;5050495;28;20227;-70